Time;durP1;ratioP1;P1;durP2;ratioP2;P2;SDS_P1;SDS_P2;PMS_P1;PMS_P2;Temp;Humidity;BMP_temperature;BMP_pressure;BME280_temperature;BME280_humidity;BME280_pressure;Samples;Min_cycle;Max_cycle;Signal;HPM_P1;HPM_P2
2022/07/18 04:10:00;;;;;;;4.35;1.92;;;;;;;20.80;39.94;101409.50;5607539;31;76025;-55
2022/07/18 04:13:02;;;;;;;3.08;1.67;;;;;;;20.80;39.94;101409.50;5584066;31;34042;-56
2022/07/18 04:16:05;;;;;;;4.78;1.62;;;;;;;20.33;45.64;101417.56;5583980;31;34142;-55
2022/07/18 04:19:07;;;;;;;2.03;1.40;;;;;;;20.36;39.91;101416.09;5569843;32;33549;-56
2022/07/18 04:22:10;;;;;;;3.60;1.67;;;;;;;20.38;41.22;101402.97;5564514;32;33723;-56
2022/07/18 04:25:12;;;;;;;5.45;1.60;;;;;;;20.27;40.52;101413.37;5564413;32;33650;-56
2022/07/18 04:28:15;;;;;;;2.08;1.40;;;;;;;20.32;40.24;101410.50;5564401;32;33535;-55
2022/07/18 04:31:17;;;;;;;3.30;1.65;;;;;;;20.42;41.12;101420.25;5564528;32;33906;-56
2022/07/18 04:34:19;;;;;;;3.33;1.58;;;;;;;20.55;40.57;101426.69;5564379;32;33567;-57
2022/07/18 04:37:22;;;;;;;4.95;1.60;;;;;;;20.63;44.95;101418.53;5564132;32;33683;-56
2022/07/18 04:40:24;;;;;;;3.87;1.65;;;;;;;20.76;39.10;101418.62;5564313;32;33598;-56
2022/07/18 04:43:26;;;;;;;2.67;1.50;;;;;;;20.88;38.37;101416.84;5564403;32;33540;-56
2022/07/18 04:46:28;;;;;;;5.80;1.55;;;;;;;20.94;40.43;101420.22;5564138;32;34317;-56
2022/07/18 04:49:32;;;;;;;4.05;2.30;;;;;;;20.99;38.30;101425.50;5564172;32;33684;-56
2022/07/18 04:52:42;;;;;;;4.45;1.75;;;;;;;20.95;39.77;101416.34;5564154;32;34432;-56
2022/07/18 04:55:44;;;;;;;4.40;1.60;;;;;;;20.94;38.24;101416.69;5564313;32;33695;-56
2022/07/18 04:58:47;;;;;;;2.87;1.77;;;;;;;20.98;39.56;101418.44;5564120;32;34329;-55
2022/07/18 05:01:50;;;;;;;7.70;1.60;;;;;;;21.02;41.70;101419.38;5563727;32;33730;-56
2022/07/18 05:04:52;;;;;;;3.35;1.65;;;;;;;21.18;38.46;101414.19;5564130;32;33755;-56
2022/07/18 05:07:55;;;;;;;4.30;1.50;;;;;;;21.20;37.77;101419.34;5564064;32;33856;-56
2022/07/18 05:10:57;;;;;;;4.60;1.70;;;;;;;21.27;47.19;101420.41;5563807;32;34255;-56
2022/07/18 05:13:59;;;;;;;3.58;1.70;;;;;;;21.37;44.61;101415.78;5570704;31;33599;-56
2022/07/18 05:17:03;;;;;;;7.18;1.75;;;;;;;21.47;44.34;101418.91;5583264;32;33762;-56
2022/07/18 05:20:07;;;;;;;4.07;1.50;;;;;;;21.57;41.33;101421.28;5576046;32;33643;-56
2022/07/18 05:23:10;;;;;;;3.45;1.70;;;;;;;21.67;43.42;101411.12;5570399;32;33601;-57
2022/07/18 05:26:13;;;;;;;2.42;1.27;;;;;;;21.86;36.74;101410.69;5570441;32;33617;-56
2022/07/18 05:29:15;;;;;;;3.15;1.70;;;;;;;21.97;46.34;101415.41;5570361;32;33774;-56
2022/07/18 05:32:17;;;;;;;3.78;1.67;;;;;;;22.17;36.63;101411.09;5570324;32;33568;-56
2022/07/18 05:35:21;;;;;;;3.00;1.42;;;;;;;22.34;36.27;101415.63;5570328;32;33177;-56
2022/07/18 05:38:23;;;;;;;3.33;1.95;;;;;;;22.46;37.91;101414.88;5570209;32;34344;-56
2022/07/18 05:41:26;;;;;;;3.03;1.67;;;;;;;22.67;36.08;101412.91;5570273;32;34338;-56
2022/07/18 05:44:29;;;;;;;4.60;1.65;;;;;;;22.77;36.07;101422.59;5570201;32;33720;-56
2022/07/18 05:47:31;;;;;;;5.75;1.80;;;;;;;22.78;35.89;101420.66;5570162;32;33751;-56
2022/07/18 05:50:34;;;;;;;5.68;2.55;;;;;;;22.88;35.17;101428.44;5570121;32;33680;-56
2022/07/18 05:53:36;;;;;;;3.15;1.52;;;;;;;22.93;36.60;101423.59;5570088;32;34242;-56
2022/07/18 05:56:38;;;;;;;5.62;1.70;;;;;;;22.93;34.49;101414.59;5570037;32;33543;-56
2022/07/18 05:59:40;;;;;;;4.55;1.60;;;;;;;23.03;35.50;101410.63;5570017;32;33997;-56
2022/07/18 06:02:43;;;;;;;7.35;1.90;;;;;;;23.14;34.43;101409.03;5569939;32;34363;-56
2022/07/18 06:05:45;;;;;;;3.70;1.50;;;;;;;23.22;36.29;101402.69;5570192;32;34228;-56
2022/07/18 06:08:47;;;;;;;4.15;1.48;;;;;;;23.20;35.11;101407.69;5569607;32;34211;-56
2022/07/18 06:11:50;;;;;;;2.33;1.40;;;;;;;23.31;37.42;101410.75;5569975;32;34411;-56
2022/07/18 06:14:52;;;;;;;4.50;1.85;;;;;;;23.36;34.00;101407.81;5569874;32;34315;-56
2022/07/18 06:17:54;;;;;;;6.62;1.48;;;;;;;23.29;34.10;101405.63;5569991;32;34320;-56
2022/07/18 06:20:56;;;;;;;9.73;1.60;;;;;;;23.40;36.13;101408.72;5569771;32;34252;-56
2022/07/18 06:23:58;;;;;;;9.55;2.12;;;;;;;23.56;40.27;101417.03;5569876;32;34417;-56
2022/07/18 06:27:01;;;;;;;7.62;1.58;;;;;;;23.57;34.47;101416.69;5569904;32;34255;-56
2022/07/18 06:30:05;;;;;;;3.15;1.55;;;;;;;23.50;38.79;101415.66;5569755;32;34449;-56
2022/07/18 06:33:07;;;;;;;4.95;1.65;;;;;;;23.53;37.45;101423.19;5568816;32;34449;-56
2022/07/18 06:36:11;;;;;;;4.47;1.75;;;;;;;23.63;36.87;101420.00;5569386;32;34394;-56
2022/07/18 06:39:16;;;;;;;3.97;1.40;;;;;;;23.82;36.87;101422.19;5569198;32;33686;-56
2022/07/18 06:42:18;;;;;;;3.77;1.57;;;;;;;23.72;38.20;101423.44;5569774;32;34414;-56
2022/07/18 06:45:20;;;;;;;6.65;2.10;;;;;;;23.84;35.56;101415.22;5569690;32;33729;-56
2022/07/18 06:48:23;;;;;;;3.67;1.40;;;;;;;23.75;34.16;101414.53;5569417;32;33762;-56
2022/07/18 06:51:25;;;;;;;10.95;1.95;;;;;;;23.75;34.99;101411.81;5569660;32;34229;-56
2022/07/18 06:54:28;;;;;;;6.22;1.73;;;;;;;23.81;33.80;101409.63;5569554;32;33700;-56
2022/07/18 06:57:30;;;;;;;7.95;2.03;;;;;;;23.86;38.40;101401.16;5569796;32;34208;-56
2022/07/18 07:00:32;;;;;;;5.62;2.37;;;;;;;24.00;32.99;101403.53;5569552;32;33580;-56
2022/07/18 07:03:35;;;;;;;3.28;1.62;;;;;;;24.08;34.46;101397.91;5569089;32;33851;-56
2022/07/18 07:06:38;;;;;;;5.10;1.40;;;;;;;24.23;36.43;101401.84;5569344;32;34335;-56
2022/07/18 07:09:40;;;;;;;7.03;1.80;;;;;;;24.28;33.08;101396.13;5569431;32;34313;-56
2022/07/18 07:12:48;;;;;;;6.57;1.60;;;;;;;24.42;34.71;101381.25;5569363;32;34404;-56
2022/07/18 07:15:50;;;;;;;6.00;1.90;;;;;;;24.43;33.17;101385.59;5569550;32;34468;-56
2022/07/18 07:18:52;;;;;;;3.90;1.87;;;;;;;24.60;36.82;101388.00;5569287;32;33589;-56
2022/07/18 07:21:54;;;;;;;2.85;1.60;;;;;;;24.65;33.07;101378.75;5569403;32;33576;-56
2022/07/18 07:24:57;;;;;;;5.62;1.70;;;;;;;24.68;33.07;101381.59;5569414;32;33681;-56
2022/07/18 07:27:59;;;;;;;3.08;1.50;;;;;;;24.71;30.03;101382.84;5569280;32;33775;-56
2022/07/18 07:31:01;;;;;;;4.15;1.55;;;;;;;24.79;33.18;101377.16;5569017;32;33598;-56
2022/07/18 07:34:04;;;;;;;11.32;2.08;;;;;;;24.85;31.13;101374.97;5569310;32;33723;-56
2022/07/18 07:37:08;;;;;;;3.03;1.50;;;;;;;24.97;34.27;101374.88;5569127;32;34420;-56
2022/07/18 07:40:10;;;;;;;5.25;1.55;;;;;;;24.97;30.12;101371.34;5569234;32;34483;-56
2022/07/18 07:43:15;;;;;;;4.20;1.83;;;;;;;24.96;30.57;101376.00;5568709;32;33720;-56
2022/07/18 07:46:17;;;;;;;16.50;1.90;;;;;;;25.00;30.58;101374.19;5569070;32;34247;-56
2022/07/18 07:49:20;;;;;;;3.35;1.60;;;;;;;25.05;31.28;101368.41;5569087;32;33264;-56
2022/07/18 07:52:23;;;;;;;4.00;1.50;;;;;;;25.11;29.54;101371.69;5569070;32;33635;-57
2022/07/18 07:55:28;;;;;;;4.50;1.60;;;;;;;25.18;30.60;101376.59;5568841;32;33758;-57
2022/07/18 07:58:30;;;;;;;3.42;1.37;;;;;;;25.23;29.95;101376.28;5568883;32;33805;-56
2022/07/18 08:01:32;;;;;;;2.25;1.50;;;;;;;25.39;31.87;101376.28;5568972;32;33624;-57
2022/07/18 08:04:35;;;;;;;3.28;1.30;;;;;;;25.39;31.54;101373.53;5568898;32;33642;-57
2022/07/18 08:07:37;;;;;;;3.70;1.60;;;;;;;25.44;32.25;101371.31;5568527;32;33537;-57
2022/07/18 08:10:40;;;;;;;3.35;1.42;;;;;;;25.44;30.91;101376.81;5551955;32;33701;-56
2022/07/18 08:13:45;;;;;;;3.45;1.50;;;;;;;25.44;34.67;101381.50;5549209;32;33746;-56
2022/07/18 08:16:47;;;;;;;5.82;1.42;;;;;;;25.53;30.48;101377.41;5549050;32;33987;-56
2022/07/18 08:19:49;;;;;;;4.45;1.50;;;;;;;25.52;30.69;101378.56;5549149;32;33568;-56
2022/07/18 08:23:04;;;;;;;2.03;1.37;;;;;;;25.48;30.43;101371.41;5549011;32;33720;-56
2022/07/18 08:26:06;;;;;;;4.07;1.60;;;;;;;25.45;31.70;101375.66;5549007;32;33906;-56
2022/07/18 08:29:08;;;;;;;4.32;1.52;;;;;;;25.43;30.58;101379.91;5548789;32;34315;-56
2022/07/18 08:32:10;;;;;;;6.37;1.58;;;;;;;25.34;29.58;101373.81;5548957;32;33620;-56
2022/07/18 08:35:14;;;;;;;5.32;1.50;;;;;;;25.43;29.80;101375.22;5548582;32;33720;-56
2022/07/18 08:38:16;;;;;;;3.05;2.00;;;;;;;25.53;32.71;101371.12;5548791;32;33644;-56
2022/07/18 08:41:22;;;;;;;6.12;1.40;;;;;;;25.60;31.27;101357.56;5548814;32;34261;-56
2022/07/18 08:44:24;;;;;;;3.90;1.67;;;;;;;25.68;30.81;101367.53;5548662;32;34291;-56
2022/07/18 08:47:29;;;;;;;6.05;3.58;;;;;;;25.70;29.79;101370.72;5548571;32;33716;-56
2022/07/18 08:50:32;;;;;;;4.87;1.80;;;;;;;25.60;29.11;101360.31;5548482;32;33659;-56
2022/07/18 08:53:37;;;;;;;5.80;1.90;;;;;;;25.60;30.17;101365.00;5547434;32;33596;-56
2022/07/18 08:56:39;;;;;;;4.40;1.53;;;;;;;25.74;30.61;101366.09;5550995;32;33379;-56
2022/07/18 08:59:41;;;;;;;6.00;1.50;;;;;;;25.73;29.76;101370.00;5551287;32;33583;-56
2022/07/18 09:02:44;;;;;;;2.35;1.77;;;;;;;25.72;29.80;101368.41;5551160;32;34264;-56
2022/07/18 09:05:46;;;;;;;3.62;1.80;;;;;;;25.87;30.28;101372.28;5551199;32;34322;-57
2022/07/18 09:08:59;;;;;;;5.20;1.52;;;;;;;25.92;32.03;101365.69;5550989;32;33591;-56
2022/07/18 09:12:05;;;;;;;2.53;1.55;;;;;;;25.89;29.42;101374.66;5551260;32;34409;-56
2022/07/18 09:15:10;;;;;;;3.55;1.50;;;;;;;25.89;30.57;101363.69;5550902;32;34307;-56
2022/07/18 09:18:12;;;;;;;5.60;1.50;;;;;;;25.91;28.97;101366.88;5551072;32;33628;-56
2022/07/18 09:21:36;;;;;;;2.97;1.62;;;;;;;25.75;28.93;101375.13;5551039;32;34376;-57
2022/07/18 09:24:55;;;;;;;2.75;1.67;;;;;;;25.71;31.11;101369.56;5550935;32;33610;-56
2022/07/18 09:27:58;;;;;;;5.55;1.37;;;;;;;25.74;28.57;101366.09;5551251;32;33082;-56
2022/07/18 09:31:17;;;;;;;2.67;1.55;;;;;;;25.69;30.27;101363.63;5550868;32;34313;-56
2022/07/18 09:34:34;;;;;;;3.10;1.42;;;;;;;25.82;29.21;101358.84;5550908;32;34227;-57
2022/07/18 09:37:39;;;;;;;3.75;1.40;;;;;;;25.84;28.71;101363.97;5550903;32;33638;-57
2022/07/18 09:40:47;;;;;;;6.47;1.70;;;;;;;25.80;30.22;101361.16;5550689;32;34291;-56
2022/07/18 09:43:49;;;;;;;3.40;1.67;;;;;;;25.87;28.29;101357.75;5549917;32;34463;-56
